Time;durP1;ratioP1;P1;durP2;ratioP2;P2;SDS_P1;SDS_P2;PMS_P1;PMS_P2;Temp;Humidity;BMP_temperature;BMP_pressure;BME280_temperature;BME280_humidity;BME280_pressure;Samples;Min_cycle;Max_cycle;Signal;HPM_P1;HPM_P2
2023/11/10 00:01:45;;;;;;;;;;;;;;;20.99;30.03;98490.53;5017138;28;1812;-75
2023/11/10 00:04:14;;;;;;;;;;;;;;;21.10;29.70;98490.34;5017103;28;1985;-76
2023/11/10 00:06:39;;;;;;;;;;;;;;;21.18;29.60;98491.81;5034127;28;1584;-76
2023/11/10 00:09:05;;;;;;;;;;;;;;;20.64;30.62;98486.22;4993984;28;1706;-75
2023/11/10 00:11:31;;;;;;;;;;;;;;;20.99;30.09;98484.06;4977900;28;1787;-75
2023/11/10 00:13:57;;;;;;;;;;;;;;;20.99;29.86;98484.88;4955674;29;1591;-74
2023/11/10 00:16:22;;;;;;;;;;;;;;;20.93;30.23;98486.56;4939613;29;1568;-75
2023/11/10 00:18:49;;;;;;;;;;;;;;;20.92;30.14;98487.00;4907528;29;1707;-75
2023/11/10 00:21:19;;;;;;;;;;;;;;;21.19;29.48;98479.28;4939799;29;1863;-75
2023/11/10 00:23:45;;;;;;;;;;;;;;;21.13;29.85;98475.31;4955091;29;1931;-75
2023/11/10 00:26:19;;;;;;;;;;;;;;;20.96;29.80;98484.91;4955492;29;1641;-75
2023/11/10 00:28:45;;;;;;;;;;;;;;;21.08;29.72;98475.81;4916588;29;1688;-75
2023/11/10 00:31:11;;;;;;;;;;;;;;;20.98;30.23;98471.13;4901321;29;1585;-75
2023/11/10 00:33:36;;;;;;;;;;;;;;;20.99;29.88;98469.94;4899000;29;1765;-75
2023/11/10 00:36:03;;;;;;;;;;;;;;;21.06;29.69;98469.78;4898127;29;1832;-75
2023/11/10 00:38:28;;;;;;;;;;;;;;;20.99;29.99;98461.44;4885205;29;1585;-75
2023/11/10 00:40:54;;;;;;;;;;;;;;;20.90;30.08;98464.00;4899738;29;1842;-75
2023/11/10 00:43:19;;;;;;;;;;;;;;;20.86;30.00;98451.94;4901027;29;1907;-75
2023/11/10 00:45:45;;;;;;;;;;;;;;;20.90;30.08;98447.03;4899140;29;1655;-75
2023/11/10 00:48:10;;;;;;;;;;;;;;;20.84;30.04;98448.75;4916177;29;1709;-75
2023/11/10 00:50:36;;;;;;;;;;;;;;;20.93;29.95;98451.81;4940343;28;2065;-75
2023/11/10 00:53:02;;;;;;;;;;;;;;;20.91;29.93;98442.97;4924994;29;1747;-75
2023/11/10 00:55:27;;;;;;;;;;;;;;;20.89;30.13;98436.97;4941895;29;1622;-75
2023/11/10 00:57:53;;;;;;;;;;;;;;;20.96;29.91;98445.31;4957552;28;1626;-75
2023/11/10 01:00:19;;;;;;;;;;;;;;;21.05;29.97;98448.41;4985285;28;1718;-75
2023/11/10 01:02:44;;;;;;;;;;;;;;;20.81;30.47;98442.72;5009656;28;1906;-75
2023/11/10 01:05:13;;;;;;;;;;;;;;;20.90;30.23;98447.03;4956823;28;1726;-75
2023/11/10 01:07:38;;;;;;;;;;;;;;;20.79;30.07;98452.88;4951229;29;1619;-75
2023/11/10 01:10:05;;;;;;;;;;;;;;;20.84;30.06;98451.59;4971514;28;1618;-75
2023/11/10 01:12:30;;;;;;;;;;;;;;;20.85;30.17;98456.00;5002582;28;1965;-75
2023/11/10 01:14:56;;;;;;;;;;;;;;;20.98;29.97;98459.81;4983719;28;1705;-75
2023/11/10 01:17:22;;;;;;;;;;;;;;;21.05;30.08;98462.53;4986182;28;1871;-75
2023/11/10 01:19:47;;;;;;;;;;;;;;;21.11;29.72;98455.16;5009046;28;1784;-75
2023/11/10 01:22:13;;;;;;;;;;;;;;;21.14;29.44;98445.81;4993342;28;1985;-75
2023/11/10 01:24:38;;;;;;;;;;;;;;;20.72;30.34;98436.81;4993730;28;1732;-75
2023/11/10 01:27:04;;;;;;;;;;;;;;;21.01;29.89;98430.69;4993761;28;1676;-76
2023/11/10 01:29:30;;;;;;;;;;;;;;;21.04;29.63;98429.84;4991779;28;1762;-75
2023/11/10 01:31:55;;;;;;;;;;;;;;;21.05;29.61;98437.09;4992575;28;1744;-75
2023/11/10 01:34:21;;;;;;;;;;;;;;;20.97;29.80;98422.25;4954987;28;1603;-75
2023/11/10 01:36:47;;;;;;;;;;;;;;;21.10;29.95;98428.09;4986053;28;1642;-75
2023/11/10 01:39:12;;;;;;;;;;;;;;;20.97;30.18;98418.63;4979443;28;1596;-75
2023/11/10 01:41:38;;;;;;;;;;;;;;;21.07;29.87;98417.63;5007526;28;1620;-75
2023/11/10 01:44:04;;;;;;;;;;;;;;;20.89;30.23;98428.47;5008534;28;1988;-75
2023/11/10 01:46:35;;;;;;;;;;;;;;;20.92;30.12;98421.94;4998133;28;1813;-75
2023/11/10 01:49:00;;;;;;;;;;;;;;;21.20;29.53;98418.63;4993140;28;1554;-75
2023/11/10 01:51:29;;;;;;;;;;;;;;;21.11;29.89;98421.22;4992160;28;1818;-75
2023/11/10 01:53:54;;;;;;;;;;;;;;;20.92;30.20;98416.28;4961198;28;1777;-75
2023/11/10 01:56:23;;;;;;;;;;;;;;;20.98;29.89;98420.22;4955806;28;1491;-75
2023/11/10 01:58:48;;;;;;;;;;;;;;;21.08;29.67;98416.41;4940868;29;1694;-75
2023/11/10 02:01:14;;;;;;;;;;;;;;;21.00;29.92;98423.44;4912662;28;1588;-75
2023/11/10 02:03:40;;;;;;;;;;;;;;;21.11;29.86;98418.38;4972805;28;1981;-75
2023/11/10 02:06:08;;;;;;;;;;;;;;;20.67;30.79;98411.84;4944723;29;1726;-75
2023/11/10 02:08:34;;;;;;;;;;;;;;;20.67;30.52;98406.19;4974673;28;1735;-75
2023/11/10 02:10:59;;;;;;;;;;;;;;;21.13;30.01;98421.56;4974310;28;1740;-75
2023/11/10 02:13:25;;;;;;;;;;;;;;;21.11;29.88;98418.38;4958049;28;1590;-75
2023/11/10 02:15:51;;;;;;;;;;;;;;;21.20;29.71;98415.78;4973759;28;1653;-75
2023/11/10 02:18:17;;;;;;;;;;;;;;;21.18;29.90;98418.22;4921401;29;1765;-75
2023/11/10 02:20:43;;;;;;;;;;;;;;;20.98;30.05;98414.56;4955446;28;1638;-76
2023/11/10 02:23:08;;;;;;;;;;;;;;;21.06;30.15;98399.88;4975405;28;1977;-75
2023/11/10 02:25:34;;;;;;;;;;;;;;;21.03;30.17;98391.44;4941980;28;1654;-75
2023/11/10 02:28:00;;;;;;;;;;;;;;;20.88;30.38;98407.06;4976022;28;1703;-75
2023/11/10 02:30:26;;;;;;;;;;;;;;;21.13;29.93;98404.59;4996717;28;1842;-75
2023/11/10 02:32:51;;;;;;;;;;;;;;;21.05;30.20;98405.97;4996216;28;1795;-75
2023/11/10 02:35:17;;;;;;;;;;;;;;;21.05;30.31;98397.47;4979903;28;1666;-75
2023/11/10 02:37:43;;;;;;;;;;;;;;;20.91;30.54;98403.38;4979987;28;1724;-75
2023/11/10 02:40:09;;;;;;;;;;;;;;;20.79;30.53;98391.44;4996234;28;1812;-75
2023/11/10 02:42:35;;;;;;;;;;;;;;;20.85;30.44;98397.41;4964060;28;1989;-75
2023/11/10 02:45:01;;;;;;;;;;;;;;;20.89;30.56;98401.00;4979485;28;1578;-75
2023/11/10 02:47:26;;;;;;;;;;;;;;;21.11;29.93;98392.91;4979777;28;1821;-75
2023/11/10 02:49:52;;;;;;;;;;;;;;;21.31;29.90;98390.94;4963779;28;1638;-75
2023/11/10 02:52:18;;;;;;;;;;;;;;;21.06;29.93;98394.19;4979415;28;1855;-75
2023/11/10 02:54:44;;;;;;;;;;;;;;;20.89;30.52;98391.72;5001917;28;1532;-76
2023/11/10 02:57:09;;;;;;;;;;;;;;;21.03;30.30;98388.59;5040161;28;1634;-75
2023/11/10 02:59:38;;;;;;;;;;;;;;;20.99;30.46;98387.88;5053955;28;1713;-75
2023/11/10 03:02:03;;;;;;;;;;;;;;;21.17;30.26;98399.66;5036276;28;1564;-75
2023/11/10 03:04:29;;;;;;;;;;;;;;;21.05;30.28;98386.16;5053370;28;1983;-75
2023/11/10 03:06:55;;;;;;;;;;;;;;;21.21;29.82;98388.28;5054815;28;1694;-76
2023/11/10 03:09:23;;;;;;;;;;;;;;;21.07;30.15;98389.34;5021920;28;1719;-75
2023/11/10 03:11:48;;;;;;;;;;;;;;;20.68;30.78;98395.69;5037952;28;1772;-75
2023/11/10 03:14:14;;;;;;;;;;;;;;;20.89;30.62;98401.00;5037861;28;1584;-75
2023/11/10 03:16:40;;;;;;;;;;;;;;;20.90;30.54;98396.13;5021613;28;1626;-75
2023/11/10 03:19:06;;;;;;;;;;;;;;;21.17;29.76;98394.00;5021265;28;1717;-75
2023/11/10 03:21:32;;;;;;;;;;;;;;;21.04;30.41;98393.84;5035067;28;2175;-75
2023/11/10 03:23:58;;;;;;;;;;;;;;;21.29;29.81;98382.03;5053061;28;1968;-75
2023/11/10 03:26:23;;;;;;;;;;;;;;;21.13;30.18;98386.81;5021248;28;1683;-76
2023/11/10 03:28:49;;;;;;;;;;;;;;;21.03;30.30;98391.44;5036040;28;1658;-75
2023/11/10 03:31:16;;;;;;;;;;;;;;;20.97;30.23;98390.34;5025849;28;1603;-75
2023/11/10 03:33:42;;;;;;;;;;;;;;;21.12;29.94;98380.34;5036360;28;1711;-75
2023/11/10 03:36:08;;;;;;;;;;;;;;;21.13;30.13;98387.59;5030591;28;1691;-75
2023/11/10 03:38:33;;;;;;;;;;;;;;;20.81;30.60;98388.97;5022272;28;1560;-75
2023/11/10 03:41:00;;;;;;;;;;;;;;;21.01;30.15;98396.72;5037760;28;1741;-75
2023/11/10 03:43:26;;;;;;;;;;;;;;;20.88;30.64;98387.25;5021015;28;1980;-75
2023/11/10 03:45:51;;;;;;;;;;;;;;;21.03;30.12;98377.28;4997774;28;1692;-75
2023/11/10 03:48:17;;;;;;;;;;;;;;;20.98;30.47;98374.94;5014564;28;1671;-75
2023/11/10 03:50:43;;;;;;;;;;;;;;;21.25;30.01;98372.03;5014236;28;1726;-75
2023/11/10 03:53:08;;;;;;;;;;;;;;;20.98;30.16;98374.94;5014791;28;1577;-75
2023/11/10 03:55:34;;;;;;;;;;;;;;;21.01;30.33;98376.94;4997877;28;1780;-75
2023/11/10 03:57:59;;;;;;;;;;;;;;;20.61;31.14;98371.16;4981588;28;1817;-75
2023/11/10 04:00:26;;;;;;;;;;;;;;;21.01;30.43;98374.09;4981606;28;1775;-76
2023/11/10 04:02:51;;;;;;;;;;;;;;;20.92;30.68;98365.38;4997465;28;1952;-75
2023/11/10 04:05:17;;;;;;;;;;;;;;;21.07;30.04;98363.88;4997568;28;1696;-76
2023/11/10 04:07:43;;;;;;;;;;;;;;;20.91;30.37;98363.78;5012814;28;1898;-75
2023/11/10 04:10:10;;;;;;;;;;;;;;;20.86;30.38;98350.94;4997210;28;1663;-75
2023/11/10 04:12:36;;;;;;;;;;;;;;;21.05;30.09;98363.53;5013962;28;1721;-75
2023/11/10 04:15:01;;;;;;;;;;;;;;;21.05;30.03;98360.69;5014175;28;1650;-75
2023/11/10 04:17:27;;;;;;;;;;;;;;;20.79;30.59;98368.03;5043399;28;1546;-75
2023/11/10 04:19:53;;;;;;;;;;;;;;;21.01;30.19;98363.56;5037945;28;1741;-75
2023/11/10 04:22:18;;;;;;;;;;;;;;;21.02;30.10;98370.03;5055149;28;1902;-75
2023/11/10 04:24:44;;;;;;;;;;;;;;;21.10;30.09;98376.38;5038264;28;1743;-75
2023/11/10 04:27:10;;;;;;;;;;;;;;;20.79;30.42;98365.22;5037900;28;1692;-75
2023/11/10 04:29:36;;;;;;;;;;;;;;;20.86;30.22;98373.56;5055172;28;1619;-75
2023/11/10 04:32:03;;;;;;;;;;;;;;;21.23;29.61;98358.31;5038206;28;1588;-75
2023/11/10 04:34:28;;;;;;;;;;;;;;;21.29;29.45;98367.88;5037468;28;1717;-75
2023/11/10 04:36:54;;;;;;;;;;;;;;;21.10;29.91;98373.53;5020412;28;1850;-75
2023/11/10 04:39:20;;;;;;;;;;;;;;;20.85;30.25;98359.84;5038003;28;1666;-75
2023/11/10 04:41:46;;;;;;;;;;;;;;;20.94;30.29;98368.59;5053909;28;1633;-75
2023/11/10 04:44:12;;;;;;;;;;;;;;;21.03;30.35;98371.63;5055774;28;1996;-75
2023/11/10 04:46:44;;;;;;;;;;;;;;;21.04;30.24;98367.59;5037351;28;1638;-75
2023/11/10 04:49:12;;;;;;;;;;;;;;;21.00;30.17;98367.66;5054162;28;1757;-75
2023/11/10 04:51:38;;;;;;;;;;;;;;;20.95;30.04;98375.84;5054107;28;2147;-74
2023/11/10 04:54:04;;;;;;;;;;;;;;;20.89;30.45;98360.59;5055306;28;1886;-75
2023/11/10 04:56:30;;;;;;;;;;;;;;;21.03;30.00;98374.44;5055669;28;944;-75
2023/11/10 04:58:55;;;;;;;;;;;;;;;21.29;29.83;98367.88;5038233;28;952;-75
2023/11/10 05:01:21;;;;;;;;;;;;;;;20.75;30.61;98362.44;5055736;28;1176;-75
2023/11/10 05:03:48;;;;;;;;;;;;;;;20.73;30.75;98359.25;5055487;28;1910;-75
2023/11/10 05:06:14;;;;;;;;;;;;;;;20.85;30.25;98362.69;5021355;28;1234;-75
2023/11/10 05:08:40;;;;;;;;;;;;;;;20.80;30.55;98370.41;5037982;28;925;-75
2023/11/10 05:11:06;;;;;;;;;;;;;;;20.91;30.27;98372.25;5037735;28;938;-75
2023/11/10 05:13:32;;;;;;;;;;;;;;;20.98;30.46;98363.63;5055622;28;948;-75
2023/11/10 05:15:58;;;;;;;;;;;;;;;21.01;29.86;98365.63;5021724;28;1199;-75
2023/11/10 05:18:27;;;;;;;;;;;;;;;20.94;29.91;98368.59;5021259;28;1261;-75
2023/11/10 05:20:56;;;;;;;;;;;;;;;20.95;30.15;98375.84;5037541;28;1146;-75
2023/11/10 05:23:22;;;;;;;;;;;;;;;21.10;29.87;98377.16;5054892;28;2036;-75
2023/11/10 05:25:48;;;;;;;;;;;;;;;21.28;29.70;98360.63;5037235;28;1394;-75
2023/11/10 05:28:14;;;;;;;;;;;;;;;21.03;29.89;98365.97;5033641;28;1221;-74
2023/11/10 05:30:39;;;;;;;;;;;;;;;21.13;29.77;98364.97;5050330;28;1272;-76
2023/11/10 05:33:05;;;;;;;;;;;;;;;21.23;29.46;98355.47;5037863;28;1260;-76
2023/11/10 05:35:30;;;;;;;;;;;;;;;20.95;30.08;98375.84;5038045;28;1387;-75
2023/11/10 05:37:56;;;;;;;;;;;;;;;20.84;30.51;98380.88;5035294;28;1178;-75
2023/11/10 05:40:21;;;;;;;;;;;;;;;21.09;29.96;98384.06;5038844;28;1249;-75
2023/11/10 05:42:47;;;;;;;;;;;;;;;20.88;30.09;98373.13;5011869;28;1910;-75
2023/11/10 05:45:13;;;;;;;;;;;;;;;20.98;30.06;98374.94;5039055;28;1225;-76
2023/11/10 05:47:38;;;;;;;;;;;;;;;20.87;30.55;98368.69;5037793;28;1176;-76
2023/11/10 05:50:06;;;;;;;;;;;;;;;20.96;30.37;98371.75;5037414;28;1304;-76
2023/11/10 05:52:31;;;;;;;;;;;;;;;20.94;30.35;98380.69;5038541;28;1185;-76
2023/11/10 05:54:58;;;;;;;;;;;;;;;20.81;30.27;98383.31;5016682;28;1285;-76
2023/11/10 05:57:25;;;;;;;;;;;;;;;20.93;30.13;98383.94;5018265;28;1110;-75
2023/11/10 05:59:51;;;;;;;;;;;;;;;20.94;30.21;98382.72;5017721;28;1296;-76
2023/11/10 06:02:17;;;;;;;;;;;;;;;20.86;30.57;98389.72;5020742;28;1983;-76
2023/11/10 06:04:44;;;;;;;;;;;;;;;20.71;30.54;98384.31;5051077;28;1142;-76
2023/11/10 06:07:11;;;;;;;;;;;;;;;20.81;30.41;98383.31;5037033;28;1253;-74
2023/11/10 06:09:37;;;;;;;;;;;;;;;20.85;30.81;98382.47;5053702;28;1158;-73
2023/11/10 06:12:04;;;;;;;;;;;;;;;21.07;30.15;98380.84;5034398;28;1139;-75
2023/11/10 06:14:30;;;;;;;;;;;;;;;21.06;30.09;98388.53;5053503;28;1197;-74
2023/11/10 06:16:56;;;;;;;;;;;;;;;20.99;30.47;98387.88;5020962;28;1131;-75
2023/11/10 06:19:21;;;;;;;;;;;;;;;20.93;30.26;98384.72;5038733;28;974;-74
2023/11/10 06:21:50;;;;;;;;;;;;;;;20.92;30.64;98388.00;5037263;28;1195;-74
2023/11/10 06:24:16;;;;;;;;;;;;;;;20.93;30.26;98381.09;5015683;28;1906;-74
2023/11/10 06:26:41;;;;;;;;;;;;;;;21.09;30.25;98381.25;5007984;28;1238;-74
2023/11/10 06:29:07;;;;;;;;;;;;;;;21.35;29.84;98375.91;5006939;28;1380;-74
2023/11/10 06:31:33;;;;;;;;;;;;;;;21.04;30.30;98378.91;5011390;28;1254;-74
2023/11/10 06:33:59;;;;;;;;;;;;;;;20.96;30.41;98380.25;4999296;28;1305;-75
2023/11/10 06:36:25;;;;;;;;;;;;;;;21.09;30.19;98378.41;4996951;28;1076;-74
2023/11/10 06:38:50;;;;;;;;;;;;;;;21.20;30.08;98370.50;4980513;28;1230;-74
2023/11/10 06:41:16;;;;;;;;;;;;;;;20.87;30.67;98380.00;4996708;28;1081;-74
2023/11/10 06:43:42;;;;;;;;;;;;;;;20.98;30.30;98377.78;4985056;28;1976;-74
2023/11/10 06:46:11;;;;;;;;;;;;;;;21.03;30.26;98374.44;5003126;28;1273;-74
2023/11/10 06:48:36;;;;;;;;;;;;;;;20.59;31.17;98365.13;4996449;28;922;-74
2023/11/10 06:51:02;;;;;;;;;;;;;;;20.68;31.09;98373.06;4996566;28;905;-75
2023/11/10 06:53:29;;;;;;;;;;;;;;;20.72;30.79;98371.75;4996161;28;954;-74
2023/11/10 06:55:55;;;;;;;;;;;;;;;21.06;30.44;98365.13;4996188;28;1099;-75
2023/11/10 06:58:22;;;;;;;;;;;;;;;20.70;31.04;98371.41;4996369;28;1020;-74
2023/11/10 07:00:49;;;;;;;;;;;;;;;20.60;31.02;98366.72;4998955;28;1192;-75
2023/11/10 07:03:16;;;;;;;;;;;;;;;20.83;30.46;98365.13;5017955;28;1902;-74
2023/11/10 07:05:42;;;;;;;;;;;;;;;20.95;30.37;98370.97;5016841;28;896;-75
2023/11/10 07:08:10;;;;;;;;;;;;;;;20.85;30.51;98365.50;5016643;28;1207;-75
2023/11/10 07:10:37;;;;;;;;;;;;;;;20.83;30.73;98374.44;5016593;28;871;-75
2023/11/10 07:13:04;;;;;;;;;;;;;;;20.73;30.95;98359.25;5016867;28;976;-76
2023/11/10 07:15:30;;;;;;;;;;;;;;;21.04;30.52;98357.06;5016935;28;1436;-75
2023/11/10 07:17:55;;;;;;;;;;;;;;;20.90;30.46;98356.53;5033371;28;1210;-75
2023/11/10 07:20:22;;;;;;;;;;;;;;;20.91;30.53;98358.13;5017557;28;936;-75
2023/11/10 07:22:48;;;;;;;;;;;;;;;20.68;30.90;98339.94;5032761;28;1906;-75
2023/11/10 07:25:14;;;;;;;;;;;;;;;20.66;30.86;98342.38;5032998;28;927;-75
2023/11/10 07:27:39;;;;;;;;;;;;;;;20.92;30.69;98337.09;5016227;28;1166;-75
2023/11/10 07:30:05;;;;;;;;;;;;;;;20.88;30.88;98347.66;5017147;28;1234;-76
2023/11/10 07:32:31;;;;;;;;;;;;;;;20.89;30.79;98343.63;5015632;28;1004;-75
2023/11/10 07:34:57;;;;;;;;;;;;;;;20.88;30.91;98342.00;5016007;28;950;-75
2023/11/10 07:37:22;;;;;;;;;;;;;;;21.18;30.10;98339.00;5032638;28;1394;-75
2023/11/10 07:39:48;;;;;;;;;;;;;;;21.18;30.28;98339.00;5017236;28;912;-75
2023/11/10 07:42:14;;;;;;;;;;;;;;;21.01;30.34;98334.50;5032350;28;1043;-75
2023/11/10 07:44:40;;;;;;;;;;;;;;;21.02;30.50;98341.75;5032328;28;1985;-76
2023/11/10 07:47:06;;;;;;;;;;;;;;;21.01;30.25;98348.63;5032476;28;862;-75
2023/11/10 07:49:32;;;;;;;;;;;;;;;21.09;30.39;98341.63;5017039;28;919;-75
2023/11/10 07:51:58;;;;;;;;;;;;;;;20.89;30.82;98340.78;5034235;28;945;-75
2023/11/10 07:54:24;;;;;;;;;;;;;;;21.16;30.21;98335.81;5018330;28;1274;-75
2023/11/10 07:56:52;;;;;;;;;;;;;;;21.35;29.88;98341.94;5034225;28;931;-76
2023/11/10 07:59:18;;;;;;;;;;;;;;;21.17;30.10;98331.75;5025734;28;1082;-75
2023/11/10 08:01:43;;;;;;;;;;;;;;;21.13;30.41;98344.38;5021054;28;1127;-76
2023/11/10 08:04:12;;;;;;;;;;;;;;;21.12;30.46;98335.09;4988336;28;1910;-75
2023/11/10 08:06:38;;;;;;;;;;;;;;;21.07;30.46;98341.25;4998476;28;1738;-75
2023/11/10 08:09:03;;;;;;;;;;;;;;;21.14;30.24;98341.13;4998227;28;1227;-75
2023/11/10 08:11:30;;;;;;;;;;;;;;;20.97;30.82;98360.00;4965875;28;1219;-75
2023/11/10 08:13:56;;;;;;;;;;;;;;;21.28;29.95;98349.31;4981624;28;988;-75
2023/11/10 08:16:22;;;;;;;;;;;;;;;21.02;30.52;98361.53;4981876;28;1124;-75
2023/11/10 08:18:47;;;;;;;;;;;;;;;21.26;30.05;98346.13;4997794;28;998;-75
2023/11/10 08:21:19;;;;;;;;;;;;;;;20.90;30.46;98350.88;4997806;28;1057;-75
2023/11/10 08:23:44;;;;;;;;;;;;;;;20.93;30.49;98355.66;4982043;28;1906;-75
2023/11/10 08:26:12;;;;;;;;;;;;;;;20.64;31.03;98344.84;4994882;28;1132;-75
2023/11/10 08:28:38;;;;;;;;;;;;;;;20.93;30.41;98338.69;4990491;28;1197;-75
2023/11/10 08:31:04;;;;;;;;;;;;;;;20.83;30.60;98345.31;5014618;28;971;-75
2023/11/10 08:33:30;;;;;;;;;;;;;;;20.68;31.00;98339.16;4997982;28;1139;-75
2023/11/10 08:35:57;;;;;;;;;;;;;;;20.98;30.19;98327.66;4981666;28;1244;-75
2023/11/10 08:38:22;;;;;;;;;;;;;;;20.83;30.75;98334.84;5013841;28;1100;-75
2023/11/10 08:40:48;;;;;;;;;;;;;;;20.97;30.45;98323.22;4984874;28;1205;-75
2023/11/10 08:43:14;;;;;;;;;;;;;;;20.92;30.55;98317.28;5033910;28;1969;-75
2023/11/10 08:45:40;;;;;;;;;;;;;;;20.84;30.87;98313.00;5001269;28;1230;-75
2023/11/10 08:48:05;;;;;;;;;;;;;;;21.02;30.35;98307.78;5017898;28;1222;-76
2023/11/10 08:50:32;;;;;;;;;;;;;;;20.86;30.58;98299.22;4984853;28;936;-76
2023/11/10 08:52:58;;;;;;;;;;;;;;;20.86;30.88;98307.69;5034112;28;1163;-75
2023/11/10 08:55:24;;;;;;;;;;;;;;;21.24;30.00;98288.34;5017501;28;940;-75
2023/11/10 08:57:50;;;;;;;;;;;;;;;21.11;30.00;98288.22;5017412;28;1175;-75
2023/11/10 09:00:17;;;;;;;;;;;;;;;20.66;30.99;98277.34;5017648;28;1006;-75
2023/11/10 09:02:43;;;;;;;;;;;;;;;21.19;29.98;98277.53;5017348;28;1898;-75
2023/11/10 09:05:12;;;;;;;;;;;;;;;21.11;30.13;98279.72;5001183;28;1633;-74
2023/11/10 09:07:39;;;;;;;;;;;;;;;21.01;30.33;98278.72;5017215;28;1246;-74
2023/11/10 09:10:05;;;;;;;;;;;;;;;21.13;30.34;98274.41;5037672;28;1102;-74
2023/11/10 09:12:32;;;;;;;;;;;;;;;20.95;30.79;98268.34;5021426;28;992;-74
2023/11/10 09:14:58;;;;;;;;;;;;;;;20.94;30.73;98264.72;5037789;28;992;-74
2023/11/10 09:17:24;;;;;;;;;;;;;;;20.89;30.56;98265.22;5021132;28;919;-74
2023/11/10 09:19:49;;;;;;;;;;;;;;;20.71;30.93;98265.53;5037849;28;950;-74
2023/11/10 09:22:15;;;;;;;;;;;;;;;21.03;30.56;98258.47;5001223;28;1540;-74
2023/11/10 09:24:41;;;;;;;;;;;;;;;21.13;30.29;98257.44;5017636;28;2305;-75
2023/11/10 09:27:07;;;;;;;;;;;;;;;20.86;30.60;98251.13;5017985;28;893;-74
2023/11/10 09:29:33;;;;;;;;;;;;;;;20.90;30.71;98249.03;5017732;28;1061;-74
2023/11/10 09:31:58;;;;;;;;;;;;;;;20.69;30.97;98228.44;5001353;28;1111;-74
2023/11/10 09:34:25;;;;;;;;;;;;;;;20.85;30.73;98226.91;5001352;28;1245;-74
2023/11/10 09:36:51;;;;;;;;;;;;;;;20.80;30.83;98223.38;4997621;28;986;-74
2023/11/10 09:39:17;;;;;;;;;;;;;;;20.70;30.76;98215.88;4997954;28;1042;-74
2023/11/10 09:41:43;;;;;;;;;;;;;;;20.69;30.97;98214.28;4998003;28;944;-74
2023/11/10 09:44:11;;;;;;;;;;;;;;;20.94;30.36;98216.63;4997812;28;1993;-74
2023/11/10 09:46:36;;;;;;;;;;;;;;;20.95;30.54;98206.09;4981828;28;1016;-74
2023/11/10 09:49:04;;;;;;;;;;;;;;;21.00;30.36;98197.13;4981313;28;1004;-74
2023/11/10 09:51:29;;;;;;;;;;;;;;;20.90;30.40;98198.94;4997686;28;1010;-74
2023/11/10 09:53:55;;;;;;;;;;;;;;;21.04;30.05;98189.34;5013027;28;1491;-75
2023/11/10 09:56:21;;;;;;;;;;;;;;;20.93;30.56;98192.38;5000602;28;996;-74
2023/11/10 09:58:47;;;;;;;;;;;;;;;20.95;30.51;98183.47;4985048;28;1204;-74
2023/11/10 10:01:13;;;;;;;;;;;;;;;21.05;30.37;98188.13;5000817;28;1011;-74
2023/11/10 10:03:38;;;;;;;;;;;;;;;21.08;30.08;98182.34;5000704;28;1906;-74
2023/11/10 10:06:04;;;;;;;;;;;;;;;20.97;30.62;98175.34;4997404;28;1077;-74
2023/11/10 10:08:30;;;;;;;;;;;;;;;21.01;30.19;98182.53;5012738;28;989;-74
2023/11/10 10:10:55;;;;;;;;;;;;;;;21.00;30.58;98171.66;5017159;28;1016;-74
2023/11/10 10:13:21;;;;;;;;;;;;;;;21.11;30.29;98169.38;5016923;28;1280;-74
2023/11/10 10:15:46;;;;;;;;;;;;;;;21.16;30.27;98160.38;5016236;28;2134;-74
2023/11/10 10:18:14;;;;;;;;;;;;;;;21.42;29.72;98160.63;5015675;28;1308;-73
2023/11/10 10:20:39;;;;;;;;;;;;;;;21.15;30.25;98158.78;5000235;28;1121;-74
2023/11/10 10:23:05;;;;;;;;;;;;;;;21.13;29.97;98155.59;5016669;28;1906;-74
2023/11/10 10:25:31;;;;;;;;;;;;;;;20.98;30.60;98154.31;5017178;28;953;-74
2023/11/10 10:27:57;;;;;;;;;;;;;;;21.01;30.43;98142.13;5016580;28;1266;-73
2023/11/10 10:30:24;;;;;;;;;;;;;;;20.97;30.64;98147.06;5016458;28;1004;-74
2023/11/10 10:32:51;;;;;;;;;;;;;;;21.07;30.12;98144.00;4996826;28;1496;-74
2023/11/10 10:35:16;;;;;;;;;;;;;;;21.17;30.08;98139.34;4980590;28;1015;-74
2023/11/10 10:37:43;;;;;;;;;;;;;;;21.29;29.79;98132.97;4996720;28;963;-74
2023/11/10 10:40:09;;;;;;;;;;;;;;;21.34;30.17;98137.34;4996915;28;974;-74
2023/11/10 10:42:35;;;;;;;;;;;;;;;21.03;30.39;98140.44;4985397;28;1914;-75
2023/11/10 10:45:04;;;;;;;;;;;;;;;21.06;30.14;98133.91;5019190;28;2102;-74
2023/11/10 10:47:34;;;;;;;;;;;;;;;20.99;30.57;98127.63;5019364;28;978;-74
2023/11/10 10:49:59;;;;;;;;;;;;;;;21.06;30.40;98119.78;5019588;28;959;-74
2023/11/10 10:52:25;;;;;;;;;;;;;;;20.95;30.72;98126.91;5019652;28;996;-74
2023/11/10 10:54:51;;;;;;;;;;;;;;;21.21;30.11;98116.63;5019328;28;1459;-74
2023/11/10 10:57:17;;;;;;;;;;;;;;;20.95;30.63;98121.25;4986740;28;1216;-74
2023/11/10 10:59:44;;;;;;;;;;;;;;;20.67;31.17;98112.13;5019624;28;1061;-74
2023/11/10 11:02:10;;;;;;;;;;;;;;;20.94;30.79;98108.34;5019621;28;1011;-73
2023/11/10 11:04:38;;;;;;;;;;;;;;;20.62;31.18;98104.16;5019074;28;1973;-74
2023/11/10 11:07:13;;;;;;;;;;;;;;;20.73;31.22;98110.41;5019203;28;1007;-74
2023/11/10 11:09:47;;;;;;;;;;;;;;;20.68;31.29;98105.25;5019355;28;1087;-74
2023/11/10 11:12:31;;;;;;;;;;;;;;;21.04;30.66;98098.81;5035885;28;1004;-74
2023/11/10 11:15:05;;;;;;;;;;;;;;;21.30;30.17;98095.00;5036004;28;908;-74
2023/11/10 11:17:34;;;;;;;;;;;;;;;21.21;30.14;98100.44;5035434;28;913;-74
2023/11/10 11:20:00;;;;;;;;;;;;;;;21.30;30.17;98097.84;5035428;28;1002;-73
2023/11/10 11:22:27;;;;;;;;;;;;;;;21.22;30.02;98096.38;5018853;28;873;-74
2023/11/10 11:25:02;;;;;;;;;;;;;;;21.19;30.16;98100.09;5035407;28;1905;-74
2023/11/10 11:27:28;;;;;;;;;;;;;;;21.04;30.52;98101.66;5037777;28;1201;-74
2023/11/10 11:29:54;;;;;;;;;;;;;;;21.25;29.95;98100.38;5036388;28;917;-74
2023/11/10 11:32:20;;;;;;;;;;;;;;;21.19;30.09;98100.09;5039541;28;946;-74
2023/11/10 11:34:52;;;;;;;;;;;;;;;20.85;30.53;98094.78;5054577;28;782;-75
2023/11/10 11:37:17;;;;;;;;;;;;;;;21.12;30.24;98097.41;5023140;28;918;-74
2023/11/10 11:39:43;;;;;;;;;;;;;;;21.03;30.44;98102.88;5057069;28;944;-74
2023/11/10 11:42:08;;;;;;;;;;;;;;;20.98;30.66;98098.53;5056091;28;1477;-74
2023/11/10 11:44:37;;;;;;;;;;;;;;;21.00;30.60;98101.72;5039408;28;1985;-74
2023/11/10 11:47:09;;;;;;;;;;;;;;;21.07;30.15;98097.94;5039321;28;1338;-75
2023/11/10 11:49:35;;;;;;;;;;;;;;;21.21;30.09;98088.31;5039489;28;902;-75
2023/11/10 11:52:05;;;;;;;;;;;;;;;21.23;29.75;98086.63;5039314;28;1178;-75
2023/11/10 11:54:30;;;;;;;;;;;;;;;21.05;30.11;98089.09;5039331;28;959;-74
2023/11/10 11:56:56;;;;;;;;;;;;;;;20.89;30.33;98078.53;5039223;28;1028;-75
2023/11/10 11:59:23;;;;;;;;;;;;;;;20.98;30.57;98083.59;5056591;28;921;-74
2023/11/10 12:01:49;;;;;;;;;;;;;;;21.03;30.12;98080.22;5018123;28;899;-75
2023/11/10 12:04:14;;;;;;;;;;;;;;;21.02;30.40;98075.81;5034608;28;1914;-75
2023/11/10 12:06:42;;;;;;;;;;;;;;;21.24;29.95;98065.59;5018098;28;1379;-74
2023/11/10 12:09:07;;;;;;;;;;;;;;;21.05;30.11;98063.63;5034606;28;914;-75
2023/11/10 12:11:35;;;;;;;;;;;;;;;21.29;29.83;98059.38;5018042;28;1211;-74
2023/11/10 12:14:05;;;;;;;;;;;;;;;20.96;30.44;98052.13;5034630;28;872;-75
2023/11/10 12:16:34;;;;;;;;;;;;;;;21.03;30.24;98049.13;5034252;28;830;-74
2023/11/10 12:19:00;;;;;;;;;;;;;;;21.07;29.94;98044.19;5034312;28;1142;-75
2023/11/10 12:21:27;;;;;;;;;;;;;;;21.11;29.98;98050.56;5034272;28;1031;-75
2023/11/10 12:24:06;;;;;;;;;;;;;;;21.19;29.77;98046.31;5018050;28;1994;-75
2023/11/10 12:26:33;;;;;;;;;;;;;;;20.97;30.40;98045.22;5018028;28;1235;-75
2023/11/10 12:28:59;;;;;;;;;;;;;;;20.97;30.06;98039.56;5034228;28;1364;-74
2023/11/10 12:31:24;;;;;;;;;;;;;;;20.86;30.46;98039.81;5034169;28;814;-74
2023/11/10 12:33:50;;;;;;;;;;;;;;;21.08;30.19;98031.63;5053343;28;957;-75
2023/11/10 12:36:18;;;;;;;;;;;;;;;21.07;30.03;98016.69;5056428;28;750;-74
2023/11/10 12:38:47;;;;;;;;;;;;;;;21.19;29.87;98006.72;5056355;28;727;-74
2023/11/10 12:41:13;;;;;;;;;;;;;;;20.99;29.98;98008.81;5055952;28;917;-75
2023/11/10 12:43:39;;;;;;;;;;;;;;;20.96;30.38;97999.16;5055734;28;1975;-74
2023/11/10 12:46:08;;;;;;;;;;;;;;;21.03;30.16;97996.16;5056378;28;851;-74
2023/11/10 12:48:35;;;;;;;;;;;;;;;21.02;30.15;98002.28;5038262;28;767;-75
2023/11/10 12:51:02;;;;;;;;;;;;;;;21.09;30.16;97996.44;5038329;28;842;-74
2023/11/10 12:53:28;;;;;;;;;;;;;;;21.04;30.05;98000.59;5056469;28;810;-74
2023/11/10 12:55:53;;;;;;;;;;;;;;;20.90;30.31;97997.31;5038331;28;826;-74